Time;durP1;ratioP1;P1;durP2;ratioP2;P2;SDS_P1;SDS_P2;PMS_P1;PMS_P2;Temp;Humidity;BMP_temperature;BMP_pressure;BME280_temperature;BME280_humidity;BME280_pressure;Samples;Min_cycle;Max_cycle;Signal;HPM_P1;HPM_P2
2022/07/14 00:03:18;;;;;;;4.10;1.50;;;;;;;;;;10551255;28;19955;-73
2022/07/14 00:08:23;;;;;;;1.60;1.50;;;;;;;;;;10551929;28;20648;-73
2022/07/14 00:13:26;;;;;;;1.63;1.35;;;;;;;;;;10548062;28;20035;-72
2022/07/14 00:18:31;;;;;;;2.60;1.73;;;;;;;;;;10556552;28;20503;-73
2022/07/14 00:23:34;;;;;;;2.00;1.50;;;;;;;;;;10549617;28;20385;-73
2022/07/14 00:28:38;;;;;;;1.60;1.38;;;;;;;;;;10553887;28;20072;-73
2022/07/14 00:33:42;;;;;;;2.80;1.70;;;;;;;;;;10550677;28;20491;-72
2022/07/14 00:38:45;;;;;;;2.33;1.20;;;;;;;;;;10561844;28;20031;-72
2022/07/14 00:43:48;;;;;;;1.75;1.40;;;;;;;;;;10556545;28;20056;-72
2022/07/14 00:48:53;;;;;;;2.03;1.35;;;;;;;;;;10559199;28;20039;-71
2022/07/14 00:53:56;;;;;;;2.08;1.60;;;;;;;;;;10557093;28;20059;-72
2022/07/14 00:58:59;;;;;;;2.47;1.20;;;;;;;;;;10553787;28;20067;-71
2022/07/14 01:04:03;;;;;;;1.75;1.20;;;;;;;;;;10555477;28;20032;-71
2022/07/14 01:09:06;;;;;;;1.75;1.42;;;;;;;;;;10559055;28;20100;-71
2022/07/14 01:14:10;;;;;;;5.03;1.50;;;;;;;;;;10546901;28;20044;-71
2022/07/14 01:19:21;;;;;;;2.33;1.50;;;;;;;;;;10558712;27;20043;-72
2022/07/14 01:24:27;;;;;;;2.60;1.27;;;;;;;;;;10559716;27;20055;-72
2022/07/14 01:29:37;;;;;;;4.63;1.40;;;;;;;;;;10559980;28;20080;-72
2022/07/14 01:35:00;;;;;;;1.50;1.40;;;;;;;;;;10561587;28;20040;-73
2022/07/14 01:40:08;;;;;;;6.00;1.75;;;;;;;;;;10560745;27;20083;-72
2022/07/14 01:45:11;;;;;;;2.10;1.30;;;;;;;;;;10556801;28;20039;-73
2022/07/14 01:50:15;;;;;;;1.65;1.35;;;;;;;;;;10565549;27;20046;-72
2022/07/14 01:55:20;;;;;;;2.25;1.65;;;;;;;;;;10559850;27;20122;-72
2022/07/14 02:00:23;;;;;;;1.58;1.45;;;;;;;;;;10553851;28;20538;-71
2022/07/14 02:05:27;;;;;;;1.52;1.40;;;;;;;;;;10562164;27;20032;-71
2022/07/14 02:15:55;;;;;;;2.53;1.50;;;;;;;;;;10569798;27;20035;-71
2022/07/14 02:20:58;;;;;;;3.17;1.58;;;;;;;;;;10569472;27;20040;-72
2022/07/14 02:26:02;;;;;;;;;;;;;;;;;;10556210;28;20039;-72
2022/07/14 02:31:06;;;;;;;2.58;1.27;;;;;;;;;;10555387;27;20400;-72
2022/07/14 02:36:10;;;;;;;2.70;1.60;;;;;;;;;;10559551;27;20032;-72
2022/07/14 02:41:13;;;;;;;2.67;1.50;;;;;;;;;;10559774;27;20023;-72
2022/07/14 02:46:18;;;;;;;2.88;1.17;;;;;;;;;;10564511;27;20031;-72
2022/07/14 02:51:20;;;;;;;2.15;1.40;;;;;;;;;;10555655;27;20051;-72
2022/07/14 02:56:23;;;;;;;1.77;1.58;;;;;;;;;;10558546;28;20040;-74
2022/07/14 03:01:29;;;;;;;1.42;1.30;;;;;;;;;;10553780;27;20039;-72
2022/07/14 03:06:32;;;;;;;1.45;1.30;;;;;;;;;;10561215;27;20038;-72
2022/07/14 03:11:34;;;;;;;3.28;1.67;;;;;;;;;;10559852;27;20040;-72
2022/07/14 03:16:39;;;;;;;2.25;1.60;;;;;;;;;;10562875;27;20048;-73
2022/07/14 03:21:42;;;;;;;1.50;1.30;;;;;;;;;;10565296;27;20663;-72
2022/07/14 03:26:46;;;;;;;1.40;1.30;;;;;;;;;;10553339;28;20730;-73
2022/07/14 03:31:52;;;;;;;1.98;1.38;;;;;;;;;;10559107;27;20070;-72
2022/07/14 03:36:57;;;;;;;1.73;1.40;;;;;;;;;;10564713;27;20442;-71
2022/07/14 03:42:00;;;;;;;2.25;1.80;;;;;;;;;;10557140;28;20380;-71
2022/07/14 03:47:05;;;;;;;2.75;1.50;;;;;;;;;;10555636;28;20031;-74
2022/07/14 03:52:07;;;;;;;1.98;1.60;;;;;;;;;;10557681;28;20123;-72
2022/07/14 03:57:11;;;;;;;1.77;1.50;;;;;;;;;;10550127;27;20028;-72
2022/07/14 04:02:15;;;;;;;1.45;1.10;;;;;;;;;;10551955;27;20065;-72
2022/07/14 04:07:18;;;;;;;4.03;1.60;;;;;;;;;;10560007;28;20035;-72
2022/07/14 04:12:21;;;;;;;4.40;1.70;;;;;;;;;;10574073;27;20039;-73
2022/07/14 04:17:27;;;;;;;2.15;1.83;;;;;;;;;;10561104;28;20381;-72
2022/07/14 04:22:31;;;;;;;3.35;1.90;;;;;;;;;;10557342;28;20508;-72
2022/07/14 04:27:42;;;;;;;2.13;1.73;;;;;;;;;;10557225;28;20071;-72
2022/07/14 04:32:47;;;;;;;2.92;1.70;;;;;;;;;;10552277;28;20788;-72
2022/07/14 04:37:50;;;;;;;2.33;1.40;;;;;;;;;;10561307;28;20040;-71
2022/07/14 04:42:53;;;;;;;3.42;1.35;;;;;;;;;;10558641;28;20089;-71
2022/07/14 04:47:58;;;;;;;3.33;1.70;;;;;;;;;;10562825;28;20046;-72
2022/07/14 04:53:01;;;;;;;3.72;1.70;;;;;;;;;;10556418;27;20148;-72
2022/07/14 04:58:04;;;;;;;1.90;1.50;;;;;;;;;;10564446;27;20082;-73
2022/07/14 05:03:08;;;;;;;2.17;1.50;;;;;;;;;;10563877;27;20029;-73
2022/07/14 05:08:11;;;;;;;4.43;1.70;;;;;;;;;;10565693;27;20073;-73
2022/07/14 05:13:14;;;;;;;;;;;;;;;;;;10563604;27;20031;-72
2022/07/14 05:18:19;;;;;;;6.05;1.70;;;;;;;;;;10569988;27;20255;-72
2022/07/14 05:23:23;;;;;;;2.08;1.52;;;;;;;;;;10559495;27;20506;-71
2022/07/14 05:28:26;;;;;;;6.00;1.75;;;;;;;;;;10566796;27;21552;-72
2022/07/14 05:33:31;;;;;;;4.18;1.92;;;;;;;;;;10558466;27;20063;-71
2022/07/14 05:38:34;;;;;;;1.50;0.88;;;;;;;;;;10552553;27;20040;-71
2022/07/14 05:43:37;;;;;;;3.35;1.50;;;;;;;;;;10552636;28;20042;-72
2022/07/14 05:48:41;;;;;;;2.22;1.65;;;;;;;;;;10550512;27;20139;-74
2022/07/14 05:53:45;;;;;;;1.40;1.30;;;;;;;;;;10560904;28;20047;-72
2022/07/14 05:58:48;;;;;;;3.20;1.50;;;;;;;;;;10560305;27;20056;-73
2022/07/14 06:03:56;;;;;;;3.30;1.42;;;;;;;;;;10557657;28;20036;-73
2022/07/14 06:08:59;;;;;;;3.30;1.33;;;;;;;;;;10543798;28;20043;-73
2022/07/14 06:14:04;;;;;;;3.45;1.65;;;;;;;;;;10562837;28;20039;-73
2022/07/14 06:19:08;;;;;;;1.00;0.90;;;;;;;;;;10565054;27;20050;-73
2022/07/14 06:24:17;;;;;;;1.75;1.15;;;;;;;;;;10559783;27;20427;-73
2022/07/14 06:29:21;;;;;;;5.20;1.15;;;;;;;;;;10564739;27;20097;-73
2022/07/14 06:34:27;;;;;;;5.97;1.60;;;;;;;;;;10560081;27;20425;-73
2022/07/14 06:39:30;;;;;;;4.40;1.40;;;;;;;;;;10561068;27;20051;-73
2022/07/14 06:44:32;;;;;;;6.05;1.75;;;;;;;;;;10555099;28;20020;-73
2022/07/14 06:49:37;;;;;;;2.42;1.30;;;;;;;;;;10561556;27;20108;-74
2022/07/14 06:54:40;;;;;;;3.30;1.40;;;;;;;;;;10558835;28;20487;-73
2022/07/14 06:59:43;;;;;;;2.13;1.25;;;;;;;;;;10563611;27;20039;-74
2022/07/14 07:06:43;;;;;;;1.60;1.33;;;;;;;;;;10556526;28;20092;-73
2022/07/14 07:10:11;;;;;;;6.55;1.35;;;;;;;;;;10562942;27;20226;-75
2022/07/14 07:15:14;;;;;;;1.70;1.10;;;;;;;;;;10550423;28;20040;-73
2022/07/14 07:20:18;;;;;;;5.00;1.67;;;;;;;;;;10557665;27;20036;-74
2022/07/14 07:25:21;;;;;;;3.80;1.27;;;;;;;;;;10556686;27;20061;-72
2022/07/14 07:30:24;;;;;;;4.90;1.58;;;;;;;;;;10554896;28;20031;-73
2022/07/14 07:35:28;;;;;;;2.38;1.17;;;;;;;;;;10561247;28;20064;-72
2022/07/14 07:40:35;;;;;;;2.53;1.30;;;;;;;;;;10552672;28;20130;-72
2022/07/14 07:45:39;;;;;;;2.40;1.50;;;;;;;;;;10555896;28;20039;-71
2022/07/14 07:50:44;;;;;;;2.92;1.40;;;;;;;;;;10558949;28;20047;-74
2022/07/14 07:55:47;;;;;;;5.28;1.88;;;;;;;;;;10550773;28;20063;-72
2022/07/14 08:00:50;;;;;;;1.63;1.52;;;;;;;;;;10555744;27;20060;-71
2022/07/14 08:05:55;;;;;;;2.90;1.48;;;;;;;;;;10557976;28;20130;-72
2022/07/14 08:11:18;;;;;;;2.85;2.00;;;;;;;;;;10554717;28;20057;-72
2022/07/14 08:16:20;;;;;;;2.65;1.55;;;;;;;;;;10554045;28;20503;-73
2022/07/14 08:21:27;;;;;;;1.90;1.35;;;;;;;;;;10556892;28;20035;-72
2022/07/14 08:26:31;;;;;;;3.00;1.58;;;;;;;;;;10559742;28;20108;-73
2022/07/14 08:31:34;;;;;;;6.75;2.50;;;;;;;;;;10563968;27;20499;-73
2022/07/14 08:36:44;;;;;;;5.22;2.08;;;;;;;;;;10570045;27;20408;-73
2022/07/14 08:41:48;;;;;;;1.40;1.40;;;;;;;;;;10561554;28;20123;-72
2022/07/14 08:46:52;;;;;;;2.30;1.77;;;;;;;;;;10564891;28;20063;-73
2022/07/14 08:51:57;;;;;;;2.65;2.20;;;;;;;;;;10569906;27;20115;-72
2022/07/14 08:57:00;;;;;;;4.40;1.90;;;;;;;;;;10558832;28;20032;-73
2022/07/14 09:02:03;;;;;;;3.03;2.00;;;;;;;;;;10570116;27;20044;-73
2022/07/14 09:07:08;;;;;;;2.00;1.90;;;;;;;;;;10582231;27;20053;-72
2022/07/14 09:12:20;;;;;;;2.38;2.17;;;;;;;;;;10563212;28;20042;-74
2022/07/14 09:17:26;;;;;;;2.60;2.30;;;;;;;;;;10561022;27;20170;-73
2022/07/14 09:22:32;;;;;;;3.35;2.40;;;;;;;;;;10560387;27;20843;-73
2022/07/14 09:27:35;;;;;;;5.45;2.90;;;;;;;;;;10565477;27;20039;-73
2022/07/14 09:32:45;;;;;;;4.80;3.20;;;;;;;;;;10561882;27;20569;-73
2022/07/14 09:37:51;;;;;;;3.05;2.85;;;;;;;;;;10552310;28;20039;-75
2022/07/14 09:42:57;;;;;;;3.20;2.87;;;;;;;;;;10562123;27;20044;-72
2022/07/14 09:48:02;;;;;;;4.90;3.03;;;;;;;;;;10564817;28;20039;-72
2022/07/14 09:53:13;;;;;;;3.25;2.90;;;;;;;;;;10557846;27;20042;-72
2022/07/14 09:58:16;;;;;;;3.40;2.67;;;;;;;;;;10553334;28;20135;-72
2022/07/14 10:03:19;;;;;;;3.67;3.00;;;;;;;;;;10553542;28;20086;-72
2022/07/14 10:08:27;;;;;;;4.68;2.72;;;;;;;;;;10558382;28;20036;-73
2022/07/14 10:13:31;;;;;;;2.75;2.55;;;;;;;;;;10553133;28;20131;-72
2022/07/14 10:18:34;;;;;;;5.57;3.28;;;;;;;;;;10566446;27;20030;-72
2022/07/14 10:23:39;;;;;;;2.85;2.65;;;;;;;;;;10557759;28;20043;-72
2022/07/14 10:28:42;;;;;;;2.90;2.75;;;;;;;;;;10557719;28;20043;-72
2022/07/14 10:33:48;;;;;;;4.07;3.10;;;;;;;;;;10554911;28;20039;-73
2022/07/14 10:39:03;;;;;;;4.40;2.45;;;;;;;;;;10554885;28;20028;-73
2022/07/14 10:44:07;;;;;;;2.38;2.17;;;;;;;;;;10552787;27;20411;-73
2022/07/14 10:49:19;;;;;;;2.60;2.40;;;;;;;;;;10554626;27;20061;-72
2022/07/14 10:54:25;;;;;;;2.47;2.38;;;;;;;;;;10563879;27;20047;-72
2022/07/14 10:59:47;;;;;;;2.55;2.28;;;;;;;;;;10552801;28;20088;-73
2022/07/14 11:05:02;;;;;;;4.15;2.30;;;;;;;;;;10559970;27;20096;-73
2022/07/14 11:10:27;;;;;;;2.17;2.08;;;;;;;;;;10553887;28;20453;-73
2022/07/14 11:15:36;;;;;;;4.30;2.10;;;;;;;;;;10556391;28;20474;-73
2022/07/14 11:20:49;;;;;;;2.22;2.10;;;;;;;;;;10556662;28;20051;-71
2022/07/14 11:25:55;;;;;;;2.80;1.63;;;;;;;;;;10561606;28;20077;-71
2022/07/14 11:31:08;;;;;;;2.22;2.00;;;;;;;;;;10551551;28;20059;-71
2022/07/14 11:36:24;;;;;;;3.90;2.15;;;;;;;;;;10558856;27;20628;-72
2022/07/14 11:41:49;;;;;;;3.67;2.03;;;;;;;;;;10551435;27;20035;-72
2022/07/14 11:46:57;;;;;;;2.25;1.90;;;;;;;;;;10553759;28;20043;-74
2022/07/14 11:52:00;;;;;;;;;;;;;;;;;;10561363;27;20050;-72
2022/07/14 11:57:05;;;;;;;3.92;1.73;;;;;;;;;;10554428;28;19919;-74
2022/07/14 12:02:09;;;;;;;2.50;1.80;;;;;;;;;;10552749;28;20039;-72
2022/07/14 12:07:13;;;;;;;4.35;1.70;;;;;;;;;;10558315;28;20138;-73
2022/07/14 12:12:21;;;;;;;4.20;1.60;;;;;;;;;;10547327;28;20043;-73
2022/07/14 12:17:26;;;;;;;1.67;1.58;;;;;;;;;;10553543;28;20557;-72
2022/07/14 12:22:30;;;;;;;3.30;1.90;;;;;;;;;;10554699;28;20044;-73
2022/07/14 12:27:35;;;;;;;1.65;1.55;;;;;;;;;;10553849;28;20047;-72
2022/07/14 12:32:37;;;;;;;4.68;1.70;;;;;;;;;;10554885;28;20054;-73
2022/07/14 12:37:44;;;;;;;4.45;1.70;;;;;;;;;;10555879;28;20050;-72
2022/07/14 12:43:09;;;;;;;1.70;1.60;;;;;;;;;;10549302;28;20043;-71
2022/07/14 12:48:13;;;;;;;3.20;1.42;;;;;;;;;;10557308;28;20078;-72
2022/07/14 12:53:18;;;;;;;1.70;1.60;;;;;;;;;;10548936;28;20040;-72
2022/07/14 12:58:26;;;;;;;1.90;1.45;;;;;;;;;;10551273;28;20129;-71
2022/07/14 13:03:29;;;;;;;2.55;1.30;;;;;;;;;;10547696;28;20508;-72
2022/07/14 13:08:36;;;;;;;6.80;1.65;;;;;;;;;;10550603;28;20047;-71
2022/07/14 13:13:41;;;;;;;3.78;1.60;;;;;;;;;;10557195;28;20035;-72
2022/07/14 13:19:07;;;;;;;3.70;1.50;;;;;;;;;;10566432;27;20047;-72
2022/07/14 13:24:15;;;;;;;1.85;1.40;;;;;;;;;;10552124;28;20040;-73
2022/07/14 13:29:19;;;;;;;1.27;0.93;;;;;;;;;;10560418;27;20061;-72
2022/07/14 13:34:34;;;;;;;3.92;1.30;;;;;;;;;;10563495;27;20415;-74
2022/07/14 13:39:37;;;;;;;3.35;1.30;;;;;;;;;;10568064;27;20023;-71
2022/07/14 13:44:41;;;;;;;2.08;1.40;;;;;;;;;;10561108;27;20449;-73
2022/07/14 13:55:04;;;;;;;3.20;1.47;;;;;;;;;;10559523;28;20048;-72
2022/07/14 14:00:10;;;;;;;2.75;1.35;;;;;;;;;;10560345;27;20389;-72
2022/07/14 14:05:12;;;;;;;4.75;1.00;;;;;;;;;;10564747;27;20554;-72
2022/07/14 14:10:16;;;;;;;0.80;0.80;;;;;;;;;;10558435;28;20035;-73
2022/07/14 14:15:20;;;;;;;3.08;1.00;;;;;;;;;;10563315;27;20108;-72
2022/07/14 14:20:24;;;;;;;6.40;1.35;;;;;;;;;;10567018;27;20119;-72
2022/07/14 14:25:27;;;;;;;2.95;1.10;;;;;;;;;;10562761;28;20408;-72
2022/07/14 14:30:32;;;;;;;2.38;1.38;;;;;;;;;;10564161;28;20544;-71
2022/07/14 14:35:35;;;;;;;3.60;1.30;;;;;;;;;;10560244;28;20116;-71
2022/07/14 14:40:39;;;;;;;1.42;1.20;;;;;;;;;;10551364;27;20052;-73
2022/07/14 14:45:46;;;;;;;3.97;1.20;;;;;;;;;;10555391;27;20509;-72
2022/07/14 14:50:48;;;;;;;4.00;1.55;;;;;;;;;;10563323;27;20043;-72
2022/07/14 14:55:51;;;;;;;2.85;1.20;;;;;;;;;;10565862;27;20073;-73
2022/07/14 15:00:55;;;;;;;2.78;1.27;;;;;;;;;;10562585;28;20047;-72
2022/07/14 15:05:58;;;;;;;4.75;1.80;;;;;;;;;;10562411;27;20491;-73
2022/07/14 15:11:01;;;;;;;3.25;1.70;;;;;;;;;;10558234;27;20047;-72
2022/07/14 15:16:06;;;;;;;1.83;1.40;;;;;;;;;;10561039;28;20158;-72
2022/07/14 15:21:09;;;;;;;1.67;1.35;;;;;;;;;;10556542;27;20035;-72
2022/07/14 15:26:13;;;;;;;4.63;1.70;;;;;;;;;;10556053;27;20121;-72
2022/07/14 15:31:20;;;;;;;4.20;1.60;;;;;;;;;;10558017;28;20028;-72
2022/07/14 15:36:30;;;;;;;5.03;1.80;;;;;;;;;;10559271;27;20162;-73
2022/07/14 15:41:33;;;;;;;3.33;1.80;;;;;;;;;;10562834;27;20031;-72
2022/07/14 15:46:38;;;;;;;2.60;1.63;;;;;;;;;;10569915;27;20044;-72
2022/07/14 15:51:41;;;;;;;2.10;1.60;;;;;;;;;;10561142;28;20071;-69
2022/07/14 15:56:45;;;;;;;4.65;1.67;;;;;;;;;;10556103;28;20039;-70
2022/07/14 16:01:50;;;;;;;3.40;1.77;;;;;;;;;;10550686;28;20035;-70
2022/07/14 16:06:53;;;;;;;2.83;1.88;;;;;;;;;;10559870;28;20582;-72
2022/07/14 16:11:56;;;;;;;4.82;1.80;;;;;;;;;;10552744;28;20044;-72
2022/07/14 16:17:02;;;;;;;6.80;2.20;;;;;;;;;;10556779;28;20031;-72
2022/07/14 16:22:05;;;;;;;4.03;2.00;;;;;;;;;;10560340;28;20146;-71
2022/07/14 16:27:09;;;;;;;3.28;1.90;;;;;;;;;;10558115;28;20035;-71
2022/07/14 16:32:14;;;;;;;2.92;1.80;;;;;;;;;;10560487;28;20059;-72
2022/07/14 16:37:17;;;;;;;3.13;1.92;;;;;;;;;;10560103;28;20058;-71
2022/07/14 16:42:21;;;;;;;3.50;1.83;;;;;;;;;;10556179;28;20038;-72
2022/07/14 16:47:26;;;;;;;3.92;1.90;;;;;;;;;;10568172;27;20352;-72
2022/07/14 16:52:30;;;;;;;5.03;2.08;;;;;;;;;;10575884;27;20087;-72
2022/07/14 16:57:34;;;;;;;3.38;1.83;;;;;;;;;;10566943;27;20071;-71
2022/07/14 17:02:38;;;;;;;5.00;2.08;;;;;;;;;;10558194;28;20049;-70
2022/07/14 17:08:01;;;;;;;2.97;1.90;;;;;;;;;;10563081;28;20035;-71
2022/07/14 17:13:04;;;;;;;3.50;2.03;;;;;;;;;;10566617;27;20062;-73
2022/07/14 17:18:10;;;;;;;5.82;2.42;;;;;;;;;;10569574;27;20042;-73
2022/07/14 17:23:13;;;;;;;3.08;2.00;;;;;;;;;;10571706;27;20399;-71
2022/07/14 17:28:16;;;;;;;4.05;2.20;;;;;;;;;;10572019;27;20039;-72
2022/07/14 17:33:21;;;;;;;2.83;2.25;;;;;;;;;;10558359;28;20056;-72
2022/07/14 17:38:24;;;;;;;2.97;2.20;;;;;;;;;;10555664;27;20054;-72
2022/07/14 17:43:28;;;;;;;3.53;2.50;;;;;;;;;;10565248;28;20096;-73
2022/07/14 17:48:33;;;;;;;4.95;2.30;;;;;;;;;;10563274;27;20062;-72
2022/07/14 17:53:36;;;;;;;6.78;2.50;;;;;;;;;;10571962;28;20055;-72
2022/07/14 17:58:59;;;;;;;5.68;2.45;;;;;;;;;;10562470;28;20130;-72
2022/07/14 18:04:04;;;;;;;6.22;2.13;;;;;;;;;;10560469;27;20047;-73
2022/07/14 18:09:07;;;;;;;5.72;2.13;;;;;;;;;;10565023;28;20640;-72
2022/07/14 18:14:11;;;;;;;3.53;2.30;;;;;;;;;;10564881;28;20036;-72
2022/07/14 18:19:15;;;;;;;7.70;2.58;;;;;;;;;;10568998;27;20043;-72
2022/07/14 18:24:19;;;;;;;5.55;2.40;;;;;;;;;;10564683;28;20033;-71
2022/07/14 18:29:23;;;;;;;5.13;2.35;;;;;;;;;;10563323;28;20122;-73
2022/07/14 18:34:28;;;;;;;4.72;2.63;;;;;;;;;;10563581;28;20441;-73
2022/07/14 18:39:32;;;;;;;9.65;3.13;;;;;;;;;;10564796;28;20419;-73
2022/07/14 18:50:09;;;;;;;5.93;3.20;;;;;;;;;;10545109;28;19967;-72
2022/07/14 18:55:14;;;;;;;5.40;2.78;;;;;;;;;;10571324;27;20163;-71
2022/07/14 19:00:17;;;;;;;11.55;2.70;;;;;;;;;;10557036;28;20127;-71
2022/07/14 19:05:22;;;;;;;3.97;2.80;;;;;;;;;;10565571;28;20114;-72
2022/07/14 19:10:25;;;;;;;6.45;3.17;;;;;;;;;;10565436;27;20059;-72
2022/07/14 19:15:28;;;;;;;7.28;3.88;;;;;;;;;;10567308;27;20536;-72
2022/07/14 19:20:32;;;;;;;7.45;3.20;;;;;;;;;;10566461;28;20126;-71
2022/07/14 19:25:34;;;;;;;16.38;4.40;;;;;;;;;;10560908;28;20772;-71
2022/07/14 19:30:38;;;;;;;7.35;4.05;;;;;;;;;;10566547;28;20043;-71
2022/07/14 19:35:42;;;;;;;10.60;3.85;;;;;;;;;;10561739;28;20063;-72
2022/07/14 19:40:45;;;;;;;10.68;3.33;;;;;;;;;;10557294;27;20110;-72
2022/07/14 19:45:48;;;;;;;12.52;5.63;;;;;;;;;;10568501;27;20074;-71
2022/07/14 19:50:52;;;;;;;11.27;4.40;;;;;;;;;;10562432;27;20480;-72
2022/07/14 19:55:55;;;;;;;11.77;4.60;;;;;;;;;;10562565;28;20036;-73
2022/07/14 20:00:57;;;;;;;;;;;;;;;;;;10560364;27;20070;-71
2022/07/14 20:06:22;;;;;;;8.25;3.00;;;;;;;;;;10568140;27;20401;-72
2022/07/14 20:11:25;;;;;;;4.82;3.15;;;;;;;;;;10562197;28;20105;-72
2022/07/14 20:16:27;;;;;;;;;;;;;;;;;;10567295;28;20448;-71
2022/07/14 20:21:33;;;;;;;7.27;3.00;;;;;;;;;;10565279;28;20291;-72
2022/07/14 20:26:36;;;;;;;9.07;3.60;;;;;;;;;;10564121;28;20326;-72
2022/07/14 20:37:04;;;;;;;6.07;3.65;;;;;;;;;;10563012;28;20039;-73
2022/07/14 20:42:07;;;;;;;10.13;4.72;;;;;;;;;;10561845;28;20039;-71
2022/07/14 20:47:16;;;;;;;10.02;5.40;;;;;;;;;;10560223;28;20131;-71
2022/07/14 20:52:21;;;;;;;5.22;3.78;;;;;;;;;;10566391;28;20056;-71
2022/07/14 20:57:25;;;;;;;6.25;4.13;;;;;;;;;;10563351;28;20549;-72
2022/07/14 21:02:28;;;;;;;6.97;3.90;;;;;;;;;;10563088;28;20031;-71
2022/07/14 21:07:34;;;;;;;5.97;4.45;;;;;;;;;;10565588;28;20052;-72
2022/07/14 21:12:37;;;;;;;6.10;3.90;;;;;;;;;;10558193;28;20115;-72
2022/07/14 21:17:40;;;;;;;7.47;4.00;;;;;;;;;;10561071;28;20474;-72
2022/07/14 21:22:45;;;;;;;6.72;4.13;;;;;;;;;;10562365;28;20063;-70
2022/07/14 21:27:48;;;;;;;8.00;3.78;;;;;;;;;;10551434;28;20116;-73
2022/07/14 21:32:51;;;;;;;7.20;4.00;;;;;;;;;;10553832;28;20042;-72
2022/07/14 21:37:55;;;;;;;6.05;3.90;;;;;;;;;;10568660;27;20038;-71
2022/07/14 21:42:58;;;;;;;7.55;4.10;;;;;;;;;;10572093;28;20122;-71
2022/07/14 21:48:01;;;;;;;5.68;3.75;;;;;;;;;;10569506;27;20435;-72
2022/07/14 21:53:06;;;;;;;6.60;4.07;;;;;;;;;;10567393;28;20032;-71
2022/07/14 21:58:09;;;;;;;6.25;4.28;;;;;;;;;;10572898;27;20036;-72
2022/07/14 22:03:12;;;;;;;8.95;4.13;;;;;;;;;;10563074;27;20044;-71
2022/07/14 22:08:16;;;;;;;7.07;4.13;;;;;;;;;;10566158;27;20039;-72
2022/07/14 22:13:19;;;;;;;8.25;3.80;;;;;;;;;;10562116;28;20072;-72
2022/07/14 22:18:22;;;;;;;5.82;3.75;;;;;;;;;;10568027;27;20085;-72
2022/07/14 22:23:35;;;;;;;5.63;3.47;;;;;;;;;;10565397;28;20036;-71
2022/07/14 22:28:37;;;;;;;6.20;3.95;;;;;;;;;;10567564;27;20040;-72
2022/07/14 22:33:40;;;;;;;6.57;4.00;;;;;;;;;;10564831;27;20365;-74
2022/07/14 22:38:46;;;;;;;7.75;3.20;;;;;;;;;;10565984;28;20558;-72
2022/07/14 22:43:49;;;;;;;8.25;3.42;;;;;;;;;;10561872;28;20109;-72
2022/07/14 22:48:54;;;;;;;8.00;3.88;;;;;;;;;;10568158;28;20575;-71
2022/07/14 22:54:05;;;;;;;6.25;3.70;;;;;;;;;;10568404;27;20032;-72
2022/07/14 22:59:08;;;;;;;6.20;3.38;;;;;;;;;;10559345;27;20496;-71
2022/07/14 23:04:11;;;;;;;6.75;3.72;;;;;;;;;;10559372;27;20372;-69
2022/07/14 23:09:19;;;;;;;5.00;3.47;;;;;;;;;;10567788;27;20032;-68
2022/07/14 23:14:22;;;;;;;6.22;3.50;;;;;;;;;;10556125;28;20055;-69
2022/07/14 23:19:25;;;;;;;6.38;3.13;;;;;;;;;;10561338;27;20050;-70
2022/07/14 23:24:30;;;;;;;6.43;3.70;;;;;;;;;;10558046;28;20585;-72
2022/07/14 23:29:32;;;;;;;5.50;3.38;;;;;;;;;;10563447;28;20396;-70
2022/07/14 23:34:36;;;;;;;5.35;3.47;;;;;;;;;;10557685;28;20097;-70
2022/07/14 23:39:40;;;;;;;5.32;3.00;;;;;;;;;;10560039;28;20040;-71
2022/07/14 23:44:43;;;;;;;5.75;3.08;;;;;;;;;;10564418;27;20036;-72
2022/07/14 23:49:45;;;;;;;4.25;3.20;;;;;;;;;;10561843;28;20084;-70
2022/07/14 23:54:49;;;;;;;6.22;3.28;;;;;;;;;;10564615;27;20104;-72
2022/07/14 23:59:52;;;;;;;8.20;3.13;;;;;;;;;;10563090;28;20031;-70
